Observation data for Dora on 03/12/2018      Previous  Date  Next       Current Mesonet Observations  Soil Data  Daily Summary Page  Observations in Plain Language
KDR1 120500Z 09003KT 07/M10 A3036 RMK A01 T00661100  RH  030%=      5-min Rain = 0
KDR1 120505Z 10003KT 07/M10 A3036 RMK A01 T00661100  RH  030%=      5-min Rain = 0
KDR1 120510Z 10003KT 07/M10 A3036 RMK A01 T00651100  RH  030%=      5-min Rain = 0
KDR1 120515Z 11003KT 06/M10 A3036 RMK A01 T00641101  RH  030%=      5-min Rain = 0
KDR1 120520Z 09004KT 06/M10 A3036 RMK A01 T00641100  RH  030%=      5-min Rain = 0
KDR1 120525Z 09004KT 06/M10 A3036 RMK A01 T00621098  RH  031%=      5-min Rain = 0
KDR1 120530Z 09003KT 06/M10 A3036 RMK A01 T00611099  RH  031%=      5-min Rain = 0
KDR1 120535Z 11002KT 06/M11 A3036 RMK A01 T00611105  RH  030%=      5-min Rain = 0
KDR1 120540Z 27006KT 06/M10 A3036 RMK A01 T00641100  RH  030%=      5-min Rain = 0
KDR1 120545Z 30006KT 07/M08 A3036 RMK A01 T00651083  RH  034%=      5-min Rain = 0
KDR1 120550Z 30005KT 07/M10 A3036 RMK A01 T00681096  RH  030%=      5-min Rain = 0
KDR1 120555Z 33004KT 07/M11 A3037 RMK A01 T00681108  RH  028%=      5-min Rain = 0
KDR1 120600Z 32006KT 06/M07 A3037 RMK A01 T00591071  RH  039%=      5-min Rain = 0
KDR1 120605Z 31006KT 05/M05 A3037 RMK A01 T00541051  RH  047%=      5-min Rain = 0
KDR1 120610Z 31007KT 05/M04 A3037 RMK A01 T00521038  RH  053%=      5-min Rain = 0
KDR1 120615Z 31006KT 05/M03 A3036 RMK A01 T00521033  RH  055%=      5-min Rain = 0
KDR1 120620Z 31005KT 05/M03 A3036 RMK A01 T00501034  RH  055%=      5-min Rain = 0
KDR1 120625Z 32005KT 05/M04 A3036 RMK A01 T00491035  RH  055%=      5-min Rain = 0
KDR1 120630Z 32005KT 05/M03 A3036 RMK A01 T00481033  RH  056%=      5-min Rain = 0
KDR1 120635Z 32004KT 05/M03 A3036 RMK A01 T00481032  RH  057%=      5-min Rain = 0
KDR1 120640Z 33004KT 05/M03 A3036 RMK A01 T00471032  RH  057%=      5-min Rain = 0
KDR1 120645Z 35005KT 05/M03 A3036 RMK A01 T00461030  RH  058%=      5-min Rain = 0
KDR1 120650Z 35006KT 05/M03 A3036 RMK A01 T00461029  RH  059%=      5-min Rain = 0
KDR1 120655Z 35006KT 05/M03 A3036 RMK A01 T00451032  RH  058%=      5-min Rain = 0
KDR1 120700Z 35005KT 04/M03 A3036 RMK A01 T00441034  RH  057%=      5-min Rain = 0
KDR1 120705Z 34004KT 04/M04 A3036 RMK A01 T00431036  RH  057%=      5-min Rain = 0
KDR1 120710Z 35004KT 04/M04 A3036 RMK A01 T00421038  RH  057%=      5-min Rain = 0
KDR1 120715Z 35004KT 04/M04 A3036 RMK A01 T00411041  RH  056%=      5-min Rain = 0
KDR1 120720Z 33004KT 04/M04 A3036 RMK A01 T00391041  RH  056%=      5-min Rain = 0
KDR1 120725Z 35004KT 04/M04 A3036 RMK A01 T00391041  RH  056%=      5-min Rain = 0
KDR1 120730Z 33004KT 04/M05 A3036 RMK A01 T00381045  RH  055%=      5-min Rain = 0
KDR1 120735Z 35004KT 04/M05 A3036 RMK A01 T00371047  RH  054%=      5-min Rain = 0
KDR1 120740Z 00004KT 04/M04 A3036 RMK A01 T00381043  RH  056%=      5-min Rain = 0
KDR1 120745Z 03004KT 04/M03 A3036 RMK A01 T00391032  RH  060%=      5-min Rain = 0
KDR1 120750Z 03003KT 04/M03 A3036 RMK A01 T00391032  RH  061%=      5-min Rain = 0
KDR1 120755Z 08003KT 04/M04 A3036 RMK A01 T00361035  RH  061%=      5-min Rain = 0
KDR1 120800Z 03004KT 04/M03 A3036 RMK A01 T00381028  RH  063%=      5-min Rain = 0
KDR1 120805Z 05003KT 04/M03 A3036 RMK A01 T00411026  RH  062%=      5-min Rain = 0
KDR1 120810Z 06003KT 04/M03 A3036 RMK A01 T00391028  RH  062%=      5-min Rain = 0
KDR1 120815Z 07003KT 04/M03 A3036 RMK A01 T00361031  RH  062%=      5-min Rain = 0
KDR1 120820Z 09002KT 03/M03 A3036 RMK A01 T00341030  RH  064%=      5-min Rain = 0
KDR1 120825Z 09002KT 03/M03 A3036 RMK A01 T00331029  RH  064%=      5-min Rain = 0
KDR1 120830Z 07001KT 03/M03 A3036 RMK A01 T00321030  RH  064%=      5-min Rain = 0
KDR1 120835Z 07001KT 03/M03 A3036 RMK A01 T00321030  RH  064%=      5-min Rain = 0
KDR1 120840Z 07001KT 03/M03 A3036 RMK A01 T00331030  RH  064%=      5-min Rain = 0
KDR1 120845Z 07001KT 03/M03 A3036 RMK A01 T00321029  RH  065%=      5-min Rain = 0
KDR1 120850Z 07002KT 03/M03 A3035 RMK A01 T00321029  RH  065%=      5-min Rain = 0
KDR1 120855Z 06002KT 03/M03 A3035 RMK A01 T00341026  RH  065%=      5-min Rain = 0
KDR1 120900Z 06002KT 04/M03 A3035 RMK A01 T00351026  RH  065%=      5-min Rain = 0
KDR1 120905Z 06002KT 04/M03 A3035 RMK A01 T00361026  RH  065%=      5-min Rain = 0
KDR1 120910Z 06001KT 03/M03 A3035 RMK A01 T00331029  RH  065%=      5-min Rain = 0
KDR1 120915Z 06000KT 03/M03 A3035 RMK A01 T00301029  RH  066%=      5-min Rain = 0
KDR1 120920Z 00000KT 03/M03 A3035 RMK A01 T00301027  RH  067%=      5-min Rain = 0
KDR1 120925Z 00000KT 03/M03 A3034 RMK A01 T00291034  RH  064%=      5-min Rain = 0
KDR1 120930Z 00000KT 03/M03 A3034 RMK A01 T00271031  RH  066%=      5-min Rain = 0
KDR1 120935Z 00000KT 03/M03 A3034 RMK A01 T00321026  RH  067%=      5-min Rain = 0
KDR1 120940Z 06001KT 03/M05 A3034 RMK A01 T00261047  RH  059%=      5-min Rain = 0
KDR1 120945Z 07001KT 02/M05 A3034 RMK A01 T00221053  RH  058%=      5-min Rain = 0
KDR1 120950Z 23001KT 02/M06 A3034 RMK A01 T00191060  RH  056%=      5-min Rain = 0
KDR1 120955Z 23001KT 02/M06 A3034 RMK A01 T00201056  RH  058%=      5-min Rain = 0
KDR1 121000Z 23002KT 02/M06 A3035 RMK A01 T00201057  RH  057%=      5-min Rain = 0
KDR1 121005Z 21003KT 02/M05 A3035 RMK A01 T00201054  RH  058%=      5-min Rain = 0
KDR1 121010Z 18003KT 02/M05 A3035 RMK A01 T00221052  RH  058%=      5-min Rain = 0
KDR1 121015Z 18002KT 03/M05 A3035 RMK A01 T00251046  RH  060%=      5-min Rain = 0
KDR1 121020Z 18003KT 03/M04 A3035 RMK A01 T00281044  RH  060%=      5-min Rain = 0
KDR1 121025Z 18002KT 03/M05 A3035 RMK A01 T00281048  RH  058%=      5-min Rain = 0
KDR1 121030Z 18002KT 03/M04 A3035 RMK A01 T00311038  RH  061%=      5-min Rain = 0
KDR1 121035Z 18001KT 03/M03 A3035 RMK A01 T00341034  RH  062%=      5-min Rain = 0
KDR1 121040Z 18001KT 04/M03 A3035 RMK A01 T00351032  RH  062%=      5-min Rain = 0
KDR1 121045Z 18002KT 04/M03 A3034 RMK A01 T00361031  RH  062%=      5-min Rain = 0
KDR1 121050Z 18002KT 04/M03 A3034 RMK A01 T00361032  RH  061%=      5-min Rain = 0
KDR1 121055Z 18002KT 04/M04 A3034 RMK A01 T00361042  RH  057%=      5-min Rain = 0
KDR1 121100Z 18002KT 03/M04 A3034 RMK A01 T00341044  RH  057%=      5-min Rain = 0
KDR1 121105Z 18002KT 04/M04 A3034 RMK A01 T00351036  RH  060%=      5-min Rain = 0
KDR1 121110Z 18001KT 04/M04 A3034 RMK A01 T00361040  RH  058%=      5-min Rain = 0
KDR1 121115Z 19002KT 04/M05 A3034 RMK A01 T00351045  RH  057%=      5-min Rain = 0
KDR1 121120Z 19003KT 04/M05 A3034 RMK A01 T00351047  RH  056%=      5-min Rain = 0
KDR1 121125Z 20003KT 04/M05 A3034 RMK A01 T00351049  RH  055%=      5-min Rain = 0
KDR1 121130Z 20003KT 04/M05 A3034 RMK A01 T00361046  RH  056%=      5-min Rain = 0
KDR1 121135Z 17003KT 04/M04 A3034 RMK A01 T00371037  RH  059%=      5-min Rain = 0
KDR1 121140Z 17003KT 04/M03 A3034 RMK A01 T00391029  RH  062%=      5-min Rain = 0
KDR1 121145Z 18002KT 04/M03 A3034 RMK A01 T00411032  RH  060%=      5-min Rain = 0
KDR1 121150Z 18002KT 04/M04 A3034 RMK A01 T00411039  RH  057%=      5-min Rain = 0
KDR1 121155Z 18003KT 04/M04 A3034 RMK A01 T00421041  RH  056%=      5-min Rain = 0
KDR1 121200Z 18003KT 04/M04 A3034 RMK A01 T00421044  RH  054%=      5-min Rain = 0
KDR1 121205Z 19003KT 04/M05 A3034 RMK A01 T00421046  RH  053%=      5-min Rain = 0
KDR1 121210Z 19002KT 04/M05 A3034 RMK A01 T00421048  RH  053%=      5-min Rain = 0
KDR1 121215Z 19002KT 04/M05 A3034 RMK A01 T00411051  RH  052%=      5-min Rain = 0
KDR1 121220Z 19001KT 04/M05 A3034 RMK A01 T00411052  RH  051%=      5-min Rain = 0
KDR1 121225Z 19001KT 04/M06 A3034 RMK A01 T00411055  RH  050%=      5-min Rain = 0
KDR1 121230Z 19001KT 04/M05 A3035 RMK A01 T00411054  RH  050%=      5-min Rain = 0
KDR1 121235Z 19002KT 04/M05 A3035 RMK A01 T00411053  RH  051%=      5-min Rain = 0
KDR1 121240Z 19002KT 04/M06 A3035 RMK A01 T00411059  RH  049%=      5-min Rain = 0
KDR1 121245Z 19003KT 04/M06 A3035 RMK A01 T00411063  RH  047%=      5-min Rain = 0
KDR1 121250Z 19003KT 04/M06 A3035 RMK A01 T00411064  RH  047%=      5-min Rain = 0
KDR1 121255Z 18003KT 04/M07 A3035 RMK A01 T00411067  RH  046%=      5-min Rain = 0
KDR1 121300Z 18002KT 04/M07 A3035 RMK A01 T00411068  RH  045%=      5-min Rain = 0
KDR1 121305Z 17003KT 04/M07 A3035 RMK A01 T00401068  RH  046%=      5-min Rain = 0
KDR1 121310Z 16003KT 04/M07 A3035 RMK A01 T00391069  RH  046%=      5-min Rain = 0
KDR1 121315Z 16003KT 04/M07 A3035 RMK A01 T00401069  RH  045%=      5-min Rain = 0
KDR1 121320Z 16003KT 04/M07 A3035 RMK A01 T00411069  RH  045%=      5-min Rain = 0
KDR1 121325Z 15004KT 04/M07 A3035 RMK A01 T00411068  RH  045%=      5-min Rain = 0
KDR1 121330Z 15004KT 04/M07 A3035 RMK A01 T00411068  RH  046%=      5-min Rain = 0
KDR1 121335Z 14004KT 04/M07 A3035 RMK A01 T00411068  RH  046%=      5-min Rain = 0
KDR1 121340Z 15003KT 04/M07 A3035 RMK A01 T00401070  RH  045%=      5-min Rain = 0
KDR1 121345Z 15004KT 04/M08 A3035 RMK A01 T00411075  RH  043%=      5-min Rain = 0
KDR1 121350Z 17003KT 04/M08 A3035 RMK A01 T00431076  RH  042%=      5-min Rain = 0
KDR1 121355Z 18003KT 04/M08 A3035 RMK A01 T00441075  RH  042%=      5-min Rain = 0
KDR1 121400Z 18003KT 05/M07 A3036 RMK A01 T00451073  RH  042%=      5-min Rain = 0
KDR1 121405Z 18004KT 05/M09 A3036 RMK A01 T00471088  RH  037%=      5-min Rain = 0
KDR1 121410Z 17005KT 05/M10 A3036 RMK A01 T00481098  RH  035%=      5-min Rain = 0
KDR1 121415Z 18004KT 05/M10 A3036 RMK A01 T00491098  RH  034%=      5-min Rain = 0
KDR1 121420Z 18004KT 05/M10 A3036 RMK A01 T00491098  RH  034%=      5-min Rain = 0
KDR1 121425Z 18003KT 05/M10 A3036 RMK A01 T00501097  RH  034%=      5-min Rain = 0
KDR1 121430Z 19004KT 05/M10 A3036 RMK A01 T00511096  RH  034%=      5-min Rain = 0
KDR1 121435Z 18004KT 05/M09 A3037 RMK A01 T00511091  RH  036%=      5-min Rain = 0
KDR1 121440Z 17004KT 05/M08 A3037 RMK A01 T00521084  RH  037%=      5-min Rain = 0
KDR1 121445Z 18005KT 05/M08 A3037 RMK A01 T00521081  RH  038%=      5-min Rain = 0
KDR1 121450Z 17005KT 05/M08 A3037 RMK A01 T00521079  RH  039%=      5-min Rain = 0
KDR1 121455Z 16006KT 05/M08 A3037 RMK A01 T00521080  RH  038%=      5-min Rain = 0
KDR1 121500Z 17006KT 05/M08 A3037 RMK A01 T00531082  RH  037%=      5-min Rain = 0
KDR1 121505Z 17005KT 05/M08 A3037 RMK A01 T00541083  RH  037%=      5-min Rain = 0
KDR1 121510Z 16005KT 05/M08 A3038 RMK A01 T00541082  RH  037%=      5-min Rain = 0
KDR1 121515Z 17006KT 06/M08 A3038 RMK A01 T00551084  RH  036%=      5-min Rain = 0
KDR1 121520Z 17007KT 06/M09 A3038 RMK A01 T00551085  RH  036%=      5-min Rain = 0
KDR1 121525Z 17006KT 06/M09 A3038 RMK A01 T00561086  RH  036%=      5-min Rain = 0
KDR1 121530Z 17007KT 06/M09 A3038 RMK A01 T00561087  RH  035%=      5-min Rain = 0
KDR1 121535Z 18007KT 06/M09 A3038 RMK A01 T00591087  RH  034%=      5-min Rain = 0
KDR1 121540Z 18006KT 06/M09 A3037 RMK A01 T00601088  RH  034%=      5-min Rain = 0
KDR1 121545Z 18007KT 06/M09 A3037 RMK A01 T00621090  RH  033%=      5-min Rain = 0
KDR1 121550Z 18007KT 06/M09 A3037 RMK A01 T00641090  RH  033%=      5-min Rain = 0
KDR1 121555Z 17006KT 07/M09 A3037 RMK A01 T00661086  RH  033%=      5-min Rain = 0
KDR1 121600Z 16007KT 07/M08 A3037 RMK A01 T00691081  RH  034%=      5-min Rain = 0
KDR1 121605Z 17006KT 07/M08 A3037 RMK A01 T00691080  RH  034%=      5-min Rain = 0
KDR1 121610Z 17007KT 07/M08 A3037 RMK A01 T00701078  RH  034%=      5-min Rain = 0
KDR1 121615Z 18006KT 07/M07 A3037 RMK A01 T00741074  RH  034%=      5-min Rain = 0
KDR1 121620Z 16007KT 08/M07 A3037 RMK A01 T00781071  RH  034%=      5-min Rain = 0
KDR1 121625Z 14005KT 08/M07 A3037 RMK A01 T00831066  RH  035%=      5-min Rain = 0
KDR1 121630Z 14007KT 09/M07 A3036 RMK A01 T00881070  RH  032%=      5-min Rain = 0
KDR1 121635Z 16007KT 09/M08 A3036 RMK A01 T00861075  RH  032%=      5-min Rain = 0
KDR1 121640Z 16007KT 09/M07 A3036 RMK A01 T00891072  RH  032%=      5-min Rain = 0
KDR1 121645Z 15007KT 09/M08 A3036 RMK A01 T00921076  RH  030%=      5-min Rain = 0
KDR1 121650Z 18007KT 10/M08 A3036 RMK A01 T00951077  RH  029%=      5-min Rain = 0
KDR1 121655Z 16005KT 10/M08 A3036 RMK A01 T00991075  RH  029%=      5-min Rain = 0
KDR1 121700Z 16008KT 10/M08 A3036 RMK A01 T00961081  RH  028%=      5-min Rain = 0
KDR1 121705Z 16006KT 10/M08 A3036 RMK A01 T00991080  RH  028%=      5-min Rain = 0
KDR1 121710Z 18006G12KT 10/M09 A3036 RMK A01 T01001087  RH  026%=      5-min Rain = 0
KDR1 121715Z 19007KT 10/M09 A3036 RMK A01 T01021086  RH  026%=      5-min Rain = 0
KDR1 121720Z 17007KT 10/M09 A3035 RMK A01 T01031091  RH  025%=      5-min Rain = 0
KDR1 121725Z 18006G11KT 10/M09 A3035 RMK A01 T01031090  RH  025%=      5-min Rain = 0
KDR1 121730Z 17007KT 11/M09 A3035 RMK A01 T01071090  RH  024%=      5-min Rain = 0
KDR1 121735Z 16007KT 10/M09 A3035 RMK A01 T01041093  RH  024%=      5-min Rain = 0
KDR1 121740Z 16006KT 11/M10 A3035 RMK A01 T01071095  RH  024%=      5-min Rain = 0
KDR1 121745Z 18006G13KT 11/M09 A3034 RMK A01 T01121093  RH  023%=      5-min Rain = 0
KDR1 121750Z 17007KT 11/M10 A3034 RMK A01 T01111095  RH  023%=      5-min Rain = 0
KDR1 121755Z 19007G14KT 11/M10 A3034 RMK A01 T01131096  RH  022%=      5-min Rain = 0
KDR1 121800Z 21006KT 12/M10 A3034 RMK A01 T01191100  RH  021%=      5-min Rain = 0
KDR1 121805Z 17009KT 12/M10 A3033 RMK A01 T01171101  RH  021%=      5-min Rain = 0
KDR1 121810Z 19004KT 11/M10 A3033 RMK A01 T01121102  RH  021%=      5-min Rain = 0
KDR1 121815Z 19009KT 12/M10 A3032 RMK A01 T01221102  RH  020%=      5-min Rain = 0
KDR1 121820Z 22005G14KT 12/M10 A3032 RMK A01 T01241103  RH  020%=      5-min Rain = 0
KDR1 121825Z 20010KT 13/M11 A3032 RMK A01 T01281105  RH  019%=      5-min Rain = 0
KDR1 121830Z 21006G12KT 13/M11 A3032 RMK A01 T01251106  RH  019%=      5-min Rain = 0
KDR1 121835Z 16006KT 13/M10 A3031 RMK A01 T01291102  RH  019%=      5-min Rain = 0
KDR1 121840Z 17009G14KT 13/M10 A3031 RMK A01 T01311103  RH  019%=      5-min Rain = 0
KDR1 121845Z 19008KT 13/M11 A3031 RMK A01 T01331105  RH  018%=      5-min Rain = 0
KDR1 121850Z 16010G15KT 13/M10 A3031 RMK A01 T01321103  RH  019%=      5-min Rain = 0
KDR1 121855Z 20007G13KT 13/M10 A303 RMK A01 T01311104  RH  019%=      5-min Rain = 0
KDR1 121900Z 21009G14KT 14/M11 A303 RMK A01 T01351106  RH  018%=      5-min Rain = 0
KDR1 121905Z 21012G17KT 14/M10 A303 RMK A01 T01401102  RH  018%=      5-min Rain = 0
KDR1 121910Z 19009G17KT 14/M10 A303 RMK A01 T01361101  RH  018%=      5-min Rain = 0
KDR1 121915Z 18012G21KT 14/M10 A3029 RMK A01 T01391102  RH  018%=      5-min Rain = 0
KDR1 121920Z 20007KT 14/M10 A3029 RMK A01 T01371102  RH  018%=      5-min Rain = 0
KDR1 121925Z 19009G14KT 14/M10 A3028 RMK A01 T01421100  RH  018%=      5-min Rain = 0
KDR1 121930Z 20012G17KT 14/M10 A3028 RMK A01 T01431097  RH  018%=      5-min Rain = 0
KDR1 121935Z 21010G15KT 14/M10 A3028 RMK A01 T01421097  RH  018%=      5-min Rain = 0
KDR1 121940Z 19010G16KT 14/M10 A3028 RMK A01 T01431097  RH  018%=      5-min Rain = 0
KDR1 121945Z 19010G17KT 14/M09 A3027 RMK A01 T01411091  RH  019%=      5-min Rain = 0
KDR1 121950Z 20011KT 14/M09 A3027 RMK A01 T01411093  RH  019%=      5-min Rain = 0
KDR1 121955Z 21009G15KT 14/M09 A3027 RMK A01 T01431090  RH  019%=      5-min Rain = 0
KDR1 122000Z 18010G18KT 14/M09 A3026 RMK A01 T01371089  RH  020%=      5-min Rain = 0
KDR1 122005Z 20011G18KT 15/M09 A3026 RMK A01 T01471088  RH  019%=      5-min Rain = 0
KDR1 122010Z 19009G14KT 14/M09 A3026 RMK A01 T01401089  RH  020%=      5-min Rain = 0
KDR1 122015Z 21012G18KT 15/M09 A3026 RMK A01 T01471089  RH  019%=      5-min Rain = 0
KDR1 122020Z 20009G14KT 15/M09 A3025 RMK A01 T01481086  RH  019%=      5-min Rain = 0
KDR1 122025Z 20008G13KT 15/M08 A3025 RMK A01 T01451083  RH  020%=      5-min Rain = 0
KDR1 122030Z 19014G19KT 15/M09 A3024 RMK A01 T01471085  RH  019%=      5-min Rain = 0
KDR1 122035Z 18009G15KT 14/M09 A3024 RMK A01 T01421085  RH  020%=      5-min Rain = 0
KDR1 122040Z 20009G16KT 14/M08 A3024 RMK A01 T01421083  RH  020%=      5-min Rain = 0
KDR1 122045Z 19012KT 15/M08 A3023 RMK A01 T01471082  RH  020%=      5-min Rain = 0
KDR1 122050Z 19009G15KT 15/M08 A3023 RMK A01 T01451082  RH  020%=      5-min Rain = 0
KDR1 122055Z 18009G19KT 14/M08 A3023 RMK A01 T01431082  RH  021%=      5-min Rain = 0
KDR1 122100Z 20013G19KT 15/M08 A3023 RMK A01 T01481082  RH  020%=      5-min Rain = 0
KDR1 122105Z 24007G13KT 15/M08 A3022 RMK A01 T01481080  RH  020%=      5-min Rain = 0
KDR1 122110Z 21006G20KT 15/M08 A3022 RMK A01 T01461079  RH  021%=      5-min Rain = 0
KDR1 122115Z 20009G17KT 15/M08 A3022 RMK A01 T01471077  RH  021%=      5-min Rain = 0
KDR1 122120Z 18010G16KT 15/M08 A3022 RMK A01 T01481078  RH  021%=      5-min Rain = 0
KDR1 122125Z 18010KT 15/M08 A3021 RMK A01 T01471080  RH  020%=      5-min Rain = 0
KDR1 122130Z 19009KT 15/M08 A3021 RMK A01 T01521079  RH  020%=      5-min Rain = 0
KDR1 122135Z 19008G15KT 15/M08 A3021 RMK A01 T01501080  RH  020%=      5-min Rain = 0
KDR1 122140Z 21008KT 15/M08 A302 RMK A01 T01511079  RH  020%=      5-min Rain = 0
KDR1 122145Z 19009G14KT 15/M08 A302 RMK A01 T01501077  RH  020%=      5-min Rain = 0
KDR1 122150Z 22008G14KT 15/M08 A302 RMK A01 T01541076  RH  020%=      5-min Rain = 0
KDR1 122155Z 18010G17KT 15/M08 A302 RMK A01 T01501078  RH  020%=      5-min Rain = 0
KDR1 122200Z 17011G16KT 14/M08 A3019 RMK A01 T01441079  RH  021%=      5-min Rain = 0
KDR1 122205Z 19010G15KT 14/M08 A3019 RMK A01 T01441080  RH  021%=      5-min Rain = 0
KDR1 122210Z 17008G13KT 14/M08 A3019 RMK A01 T01391081  RH  021%=      5-min Rain = 0
KDR1 122215Z 18008G14KT 15/M08 A3019 RMK A01 T01491080  RH  020%=      5-min Rain = 0
KDR1 122220Z 18010KT 15/M08 A3019 RMK A01 T01451080  RH  021%=      5-min Rain = 0
KDR1 122225Z 21009G15KT 15/M08 A3019 RMK A01 T01481082  RH  020%=      5-min Rain = 0
KDR1 122230Z 18008KT 15/M08 A3018 RMK A01 T01491081  RH  020%=      5-min Rain = 0
KDR1 122235Z 20007KT 15/M08 A3018 RMK A01 T01491084  RH  019%=      5-min Rain = 0
KDR1 122240Z 17009KT 15/M08 A3018 RMK A01 T01461083  RH  020%=      5-min Rain = 0
KDR1 122245Z 19010KT 15/M09 A3018 RMK A01 T01471086  RH  019%=      5-min Rain = 0
KDR1 122250Z 17009KT 14/M09 A3018 RMK A01 T01441087  RH  020%=      5-min Rain = 0
KDR1 122255Z 19010KT 15/M09 A3017 RMK A01 T01461087  RH  019%=      5-min Rain = 0
KDR1 122300Z 17009KT 15/M09 A3017 RMK A01 T01471086  RH  019%=      5-min Rain = 0
KDR1 122305Z 18011KT 15/M09 A3017 RMK A01 T01471087  RH  019%=      5-min Rain = 0
KDR1 122310Z 19011KT 14/M09 A3017 RMK A01 T01441089  RH  019%=      5-min Rain = 0
KDR1 122315Z 18010KT 14/M09 A3017 RMK A01 T01411089  RH  020%=      5-min Rain = 0
KDR1 122320Z 18009KT 14/M09 A3017 RMK A01 T01421089  RH  019%=      5-min Rain = 0
KDR1 122325Z 19011G16KT 15/M09 A3017 RMK A01 T01481088  RH  019%=      5-min Rain = 0
KDR1 122330Z 18010G20KT 15/M09 A3017 RMK A01 T01501088  RH  019%=      5-min Rain = 0
KDR1 122335Z 18012KT 14/M09 A3017 RMK A01 T01441090  RH  019%=      5-min Rain = 0
KDR1 122340Z 18010KT 15/M09 A3017 RMK A01 T01461090  RH  019%=      5-min Rain = 0
KDR1 122345Z 18011KT 15/M09 A3017 RMK A01 T01451091  RH  019%=      5-min Rain = 0
KDR1 122350Z 19011KT 14/M09 A3017 RMK A01 T01431089  RH  019%=      5-min Rain = 0
KDR1 122355Z 18009G14KT 14/M09 A3017 RMK A01 T01441090  RH  019%=      5-min Rain = 0
KDR1 130000Z 19012KT 14/M09 A3017 RMK A01 T01431088  RH  019%=      5-min Rain = 0
KDR1 130005Z 20011KT 15/M09 A3017 RMK A01 T01451088  RH  019%=      5-min Rain = 0
KDR1 130010Z 19010KT 14/M09 A3017 RMK A01 T01431088  RH  020%=      5-min Rain = 0
KDR1 130015Z 17010KT 14/M09 A3017 RMK A01 T01401087  RH  020%=      5-min Rain = 0
KDR1 130020Z 18011KT 14/M09 A3017 RMK A01 T01371086  RH  021%=      5-min Rain = 0
KDR1 130025Z 17011KT 14/M09 A3017 RMK A01 T01351086  RH  021%=      5-min Rain = 0
KDR1 130030Z 17010KT 13/M09 A3018 RMK A01 T01321085  RH  022%=      5-min Rain = 0
KDR1 130035Z 19010KT 13/M08 A3018 RMK A01 T01321084  RH  022%=      5-min Rain = 0
KDR1 130040Z 18009KT 13/M08 A3018 RMK A01 T01291084  RH  022%=      5-min Rain = 0
KDR1 130045Z 16008KT 12/M08 A3018 RMK A01 T01231084  RH  023%=      5-min Rain = 0
KDR1 130050Z 17007KT 12/M08 A3018 RMK A01 T01171083  RH  024%=      5-min Rain = 0
KDR1 130055Z 17007KT 11/M08 A3018 RMK A01 T01111083  RH  025%=      5-min Rain = 0
KDR1 130100Z 17008KT 11/M08 A3018 RMK A01 T01061083  RH  026%=      5-min Rain = 0
KDR1 130105Z 17009KT 10/M09 A3018 RMK A01 T01021085  RH  026%=      5-min Rain = 0
KDR1 130110Z 17009KT 10/M09 A3018 RMK A01 T00991086  RH  026%=      5-min Rain = 0
KDR1 130115Z 17009KT 10/M09 A3019 RMK A01 T00961087  RH  027%=      5-min Rain = 0
KDR1 130120Z 17009KT 09/M09 A3019 RMK A01 T00921088  RH  027%=      5-min Rain = 0
KDR1 130125Z 17009KT 09/M09 A3019 RMK A01 T00881088  RH  028%=      5-min Rain = 0
KDR1 130130Z 17010KT 08/M09 A3019 RMK A01 T00841090  RH  029%=      5-min Rain = 0
KDR1 130135Z 17010KT 08/M09 A3019 RMK A01 T00801090  RH  029%=      5-min Rain = 0
KDR1 130140Z 17010KT 08/M09 A3019 RMK A01 T00771090  RH  030%=      5-min Rain = 0
KDR1 130145Z 17010KT 08/M09 A3019 RMK A01 T00761090  RH  030%=      5-min Rain = 0
KDR1 130150Z 17010KT 07/M09 A3019 RMK A01 T00741091  RH  030%=      5-min Rain = 0
KDR1 130155Z 16009KT 07/M09 A3019 RMK A01 T00711091  RH  031%=      5-min Rain = 0
KDR1 130200Z 17009KT 07/M09 A3019 RMK A01 T00681093  RH  031%=      5-min Rain = 0
KDR1 130205Z 17010KT 07/M09 A3019 RMK A01 T00661092  RH  032%=      5-min Rain = 0
KDR1 130210Z 17010KT 07/M09 A3019 RMK A01 T00661092  RH  032%=      5-min Rain = 0
KDR1 130215Z 17011KT 06/M09 A3019 RMK A01 T00641092  RH  032%=      5-min Rain = 0
KDR1 130220Z 17009KT 06/M09 A3019 RMK A01 T00621092  RH  033%=      5-min Rain = 0
KDR1 130225Z 17008KT 06/M09 A3019 RMK A01 T00591092  RH  033%=      5-min Rain = 0
KDR1 130230Z 16009KT 06/M09 A3019 RMK A01 T00571092  RH  034%=      5-min Rain = 0
KDR1 130235Z 16010KT 06/M09 A3019 RMK A01 T00561091  RH  034%=      5-min Rain = 0
KDR1 130240Z 16009KT 06/M09 A3019 RMK A01 T00551090  RH  035%=      5-min Rain = 0
KDR1 130245Z 16009KT 06/M09 A3019 RMK A01 T00611089  RH  034%=      5-min Rain = 0
KDR1 130250Z 16009KT 07/M09 A3019 RMK A01 T00661088  RH  033%=      5-min Rain = 0
KDR1 130255Z 16010KT 07/M09 A3019 RMK A01 T00711088  RH  032%=      5-min Rain = 0
KDR1 130300Z 16011KT 07/M09 A3019 RMK A01 T00741088  RH  031%=      5-min Rain = 0
KDR1 130305Z 16012KT 08/M09 A3019 RMK A01 T00771090  RH  030%=      5-min Rain = 0
KDR1 130310Z 16013KT 08/M09 A3019 RMK A01 T00801093  RH  029%=      5-min Rain = 0
KDR1 130315Z 16013KT 08/M09 A3019 RMK A01 T00811094  RH  028%=      5-min Rain = 0
KDR1 130320Z 16014G19KT 08/M10 A3019 RMK A01 T00821096  RH  028%=      5-min Rain = 0
KDR1 130325Z 16015KT 08/M10 A3019 RMK A01 T00841097  RH  027%=      5-min Rain = 0
KDR1 130330Z 16014KT 08/M10 A3019 RMK A01 T00841098  RH  027%=      5-min Rain = 0
KDR1 130335Z 16015KT 09/M10 A3019 RMK A01 T00851098  RH  027%=      5-min Rain = 0
KDR1 130340Z 16015KT 08/M10 A3019 RMK A01 T00841097  RH  027%=      5-min Rain = 0
KDR1 130345Z 17014G19KT 08/M10 A3019 RMK A01 T00831097  RH  027%=      5-min Rain = 0
KDR1 130350Z 16015KT 08/M10 A3019 RMK A01 T00831097  RH  027%=      5-min Rain = 0
KDR1 130355Z 16015KT 08/M10 A3019 RMK A01 T00831097  RH  027%=      5-min Rain = 0
KDR1 130400Z 16014G19KT 08/M10 A3019 RMK A01 T00821096  RH  028%=      5-min Rain = 0
KDR1 130405Z 17014KT 08/M10 A3019 RMK A01 T00811095  RH  028%=      5-min Rain = 0
KDR1 130410Z 17014KT 08/M10 A302 RMK A01 T00811095  RH  028%=      5-min Rain = 0
KDR1 130415Z 17014KT 08/M09 A302 RMK A01 T00811094  RH  028%=      5-min Rain = 0
KDR1 130420Z 17014KT 08/M09 A302 RMK A01 T00811092  RH  029%=      5-min Rain = 0
KDR1 130425Z 17015KT 08/M09 A302 RMK A01 T00801091  RH  029%=      5-min Rain = 0
KDR1 130430Z 17014KT 08/M09 A302 RMK A01 T00781090  RH  030%=      5-min Rain = 0
KDR1 130435Z 17014KT 08/M09 A302 RMK A01 T00761089  RH  030%=      5-min Rain = 0
KDR1 130440Z 17014KT 08/M09 A302 RMK A01 T00751088  RH  031%=      5-min Rain = 0
KDR1 130445Z 17014KT 07/M09 A302 RMK A01 T00731088  RH  031%=      5-min Rain = 0
KDR1 130450Z 17013KT 07/M09 A302 RMK A01 T00691088  RH  032%=      5-min Rain = 0
KDR1 130455Z 17012KT 07/M09 A302 RMK A01 T00671088  RH  033%=      5-min Rain = 0

Page generated in 0.0091 seconds.